createdAt,value
2023-01-19T00:03:53.646Z,28.27
2023-01-19T00:08:55.297Z,26.83
2023-01-19T00:13:57.843Z,20.23
2023-01-19T00:18:59.693Z,22.25
2023-01-19T00:24:01.326Z,18.63
2023-01-19T00:29:04.704Z,18.75
2023-01-19T00:34:06.918Z,19.08
2023-01-19T00:39:08.824Z,20.08
2023-01-19T00:44:11.297Z,22.23
2023-01-19T00:49:12.907Z,19.02
2023-01-19T00:54:14.737Z,17.65
2023-01-19T00:59:16.346Z,23.15
2023-01-19T01:04:18.029Z,18.10
2023-01-19T01:09:19.663Z,16.83
2023-01-19T01:14:21.286Z,22.08
2023-01-19T01:24:24.464Z,18.75
2023-01-19T01:34:28.182Z,18.02
2023-01-19T01:39:29.815Z,19.58
2023-01-19T01:44:51.582Z,19.50
2023-01-19T01:50:01.515Z,16.58
2023-01-19T01:55:06.976Z,20.25
2023-01-19T02:00:09.636Z,17.48
2023-01-19T02:05:15.482Z,13.65
2023-01-19T02:10:36.720Z,18.58
2023-01-19T02:15:38.349Z,13.85
2023-01-19T02:20:43.528Z,11.02
2023-01-19T02:25:45.332Z,13.35
2023-01-19T02:30:47.107Z,13.05
2023-01-19T02:35:50.884Z,14.10
2023-01-19T02:40:54.859Z,12.32
2023-01-19T02:45:57.256Z,15.23
2023-01-19T02:51:04.212Z,15.52
2023-01-19T02:56:05.832Z,13.57
2023-01-19T03:01:21.629Z,14.20
2023-01-19T03:07:11.826Z,13.25
2023-01-19T03:12:16.345Z,17.10
2023-01-19T03:17:19.099Z,13.55
2023-01-19T03:22:29.382Z,11.18
2023-01-19T03:27:40.810Z,9.50
2023-01-19T03:32:53.391Z,10.48
2023-01-19T03:37:58.181Z,13.10
2023-01-19T03:43:01.176Z,15.27
2023-01-19T03:48:03.376Z,13.23
2023-01-19T03:53:15.812Z,12.75
2023-01-19T03:58:17.753Z,10.30
2023-01-19T04:03:19.801Z,15.45
2023-01-19T04:08:21.412Z,10.18
2023-01-19T04:13:23.439Z,10.75
2023-01-19T04:18:25.077Z,8.25
2023-01-19T04:23:26.992Z,13.25
2023-01-19T04:28:28.733Z,7.65
2023-01-19T04:33:30.413Z,9.40
2023-01-19T04:38:32.032Z,6.93
2023-01-19T04:43:33.860Z,7.95
2023-01-19T04:48:35.477Z,7.55
2023-01-19T04:53:37.464Z,15.68
2023-01-19T04:58:40.220Z,13.98
2023-01-19T05:03:41.832Z,11.45
2023-01-19T05:08:45.327Z,16.80
2023-01-19T05:13:47.141Z,9.30
2023-01-19T05:18:48.758Z,5.15
2023-01-19T05:23:50.766Z,7.03
2023-01-19T05:28:52.464Z,7.35
2023-01-19T05:33:54.150Z,5.03
2023-01-19T05:38:55.836Z,4.95
2023-01-19T05:49:01.687Z,4.88
2023-01-19T05:54:04.609Z,8.00
2023-01-19T05:59:06.302Z,5.78
2023-01-19T06:04:07.922Z,6.63
2023-01-19T06:09:09.706Z,5.57
2023-01-19T06:14:11.916Z,5.68
2023-01-19T06:19:13.815Z,6.85
2023-01-19T06:24:16.543Z,7.75
2023-01-19T06:29:18.393Z,13.98
2023-01-19T06:34:20.109Z,10.95
2023-01-19T06:44:23.293Z,7.88
2023-01-19T06:49:24.984Z,8.50
2023-01-19T06:59:28.874Z,9.25
2023-01-19T07:09:32.059Z,8.00
2023-01-19T07:19:35.786Z,5.10
2023-01-19T07:24:38.386Z,10.82
2023-01-19T07:29:40.097Z,10.35
2023-01-19T07:34:41.851Z,7.25
2023-01-19T07:39:43.549Z,9.95
2023-01-19T07:49:46.799Z,8.70
2023-01-19T07:59:52.919Z,11.75
2023-01-19T08:04:55.144Z,8.73
2023-01-19T08:09:56.891Z,9.52
2023-01-19T08:14:58.649Z,10.50
2023-01-19T08:20:00.695Z,8.10
2023-01-19T08:25:02.344Z,10.93
2023-01-19T08:30:04.288Z,11.80
2023-01-19T08:35:06.687Z,9.80
2023-01-19T08:40:09.192Z,12.45
2023-01-19T08:45:11.174Z,10.00
2023-01-19T08:50:12.854Z,6.47
2023-01-19T08:55:14.568Z,9.50
2023-01-19T09:00:16.668Z,7.35
2023-01-19T09:05:18.583Z,5.88
2023-01-19T09:10:20.291Z,8.70
2023-01-19T09:15:21.973Z,6.13
2023-01-19T09:20:23.559Z,9.20
2023-01-19T09:25:25.886Z,8.27
2023-01-19T09:30:27.946Z,11.27
2023-01-19T09:35:31.459Z,6.65
2023-01-19T09:40:33.463Z,7.50
2023-01-19T09:45:38.856Z,7.13
2023-01-19T09:50:46.592Z,9.68
2023-01-19T09:55:48.234Z,8.20
2023-01-19T10:01:08.323Z,10.63
2023-01-19T10:06:12.034Z,9.07
2023-01-19T10:11:56.496Z,9.18
2023-01-19T10:17:24.383Z,10.02
2023-01-19T10:22:28.487Z,13.15
2023-01-19T10:27:31.834Z,11.50
2023-01-19T10:32:35.816Z,8.88
2023-01-19T10:37:38.410Z,6.70
2023-01-19T10:42:41.753Z,12.68
2023-01-19T10:47:44.406Z,10.32
2023-01-19T10:52:50.186Z,10.35
2023-01-19T10:57:53.607Z,8.68
2023-01-19T11:02:55.561Z,10.35
2023-01-19T11:07:57.575Z,8.43
2023-01-19T11:13:07.506Z,8.02
2023-01-19T11:18:27.101Z,7.32
2023-01-19T11:23:31.897Z,8.10
2023-01-19T11:28:48.494Z,11.35
2023-01-19T11:33:52.025Z,9.90
2023-01-19T11:38:56.381Z,8.45
2023-01-19T11:44:02.235Z,7.35
2023-01-19T11:49:11.762Z,5.43
2023-01-19T11:54:27.259Z,7.80
2023-01-19T11:59:28.942Z,6.05
2023-01-19T12:04:33.591Z,5.50
2023-01-19T12:09:38.921Z,5.15
2023-01-19T12:14:55.651Z,7.43
2023-01-19T12:20:26.696Z,5.90
2023-01-19T12:25:58.183Z,6.20
2023-01-19T12:31:01.201Z,5.47
2023-01-19T12:36:10.051Z,5.45
2023-01-19T12:41:21.860Z,4.93
2023-01-19T12:46:31.136Z,3.80
2023-01-19T12:51:33.428Z,7.60
2023-01-19T12:56:37.136Z,4.75
2023-01-19T13:01:38.842Z,4.35
2023-01-19T13:06:49.666Z,4.40
2023-01-19T13:12:19.542Z,5.60
2023-01-19T13:17:31.699Z,6.68
2023-01-19T13:22:51.209Z,5.93
2023-01-19T13:27:52.902Z,5.32
2023-01-19T13:33:04.587Z,4.97
2023-01-19T13:38:07.306Z,4.43
2023-01-19T13:43:18.601Z,7.05
2023-01-19T13:48:24.663Z,8.98
2023-01-19T13:53:26.533Z,5.75
2023-01-19T13:58:29.277Z,8.05
2023-01-19T14:03:31.075Z,3.60
2023-01-19T14:08:33.797Z,5.82
2023-01-19T14:13:40.300Z,7.40
2023-01-19T14:18:42.167Z,8.40
2023-01-19T14:23:48.408Z,5.85
2023-01-19T14:28:50.059Z,12.65
2023-01-19T14:33:53.495Z,6.70
2023-01-19T14:38:56.882Z,6.15
2023-01-19T14:43:59.197Z,9.70
2023-01-19T14:49:03.851Z,9.45
2023-01-19T14:54:05.654Z,6.93
2023-01-19T14:59:09.906Z,6.65
2023-01-19T15:04:11.624Z,8.68
2023-01-19T15:09:14.517Z,6.60
2023-01-19T15:14:17.104Z,5.07
2023-01-19T15:19:18.754Z,4.70
2023-01-19T15:24:20.415Z,8.15
2023-01-19T15:29:26.219Z,10.32
2023-01-19T15:34:27.921Z,6.78
2023-01-19T15:39:29.667Z,8.68
2023-01-19T15:44:31.383Z,9.40
2023-01-19T15:49:33.426Z,9.02
2023-01-19T15:54:35.078Z,9.40
2023-01-19T15:59:36.793Z,6.72
2023-01-19T16:04:38.414Z,6.00
2023-01-19T16:09:40.326Z,6.28
2023-01-19T16:14:41.966Z,8.07
2023-01-19T16:19:43.610Z,8.90
2023-01-19T16:24:45.311Z,9.02
2023-01-19T16:29:47.889Z,8.13
2023-01-19T16:34:49.525Z,10.65
2023-01-19T16:39:51.730Z,11.48
2023-01-19T16:44:54.584Z,8.63
2023-01-19T16:49:56.252Z,8.18
2023-01-19T16:54:57.932Z,7.22
2023-01-19T16:59:59.672Z,7.55
2023-01-19T17:05:01.426Z,7.13
2023-01-19T17:10:03.436Z,11.10
2023-01-19T17:15:05.575Z,11.73
2023-01-19T17:20:08.037Z,11.38
2023-01-19T17:25:09.800Z,9.52
2023-01-19T17:30:12.075Z,9.77
2023-01-19T17:35:14.040Z,9.57
2023-01-19T17:40:16.081Z,12.38
2023-01-19T17:45:17.785Z,10.85
2023-01-19T17:50:19.437Z,10.10
2023-01-19T17:55:21.067Z,9.38
2023-01-19T18:00:23.073Z,12.52
2023-01-19T18:05:24.822Z,9.82
2023-01-19T18:10:26.496Z,9.88
2023-01-19T18:15:28.174Z,11.55
2023-01-19T18:20:31.696Z,8.68
2023-01-19T18:25:33.472Z,11.05
2023-01-19T18:30:37.373Z,11.85
2023-01-19T18:35:39.821Z,11.52
2023-01-19T18:40:41.703Z,9.57
2023-01-19T18:45:45.810Z,8.32
2023-01-19T18:50:47.588Z,9.93
2023-01-19T18:55:54.157Z,10.68
2023-01-19T19:00:56.707Z,9.07
2023-01-19T19:06:02.471Z,9.30
2023-01-19T19:11:07.798Z,11.57
2023-01-19T19:16:10.801Z,7.38
2023-01-19T19:21:12.798Z,7.80
2023-01-19T19:26:14.480Z,9.07
2023-01-19T19:31:20.493Z,9.07
2023-01-19T19:36:24.082Z,9.73
2023-01-19T19:41:27.273Z,7.78
2023-01-19T19:46:29.048Z,8.30
2023-01-19T19:51:30.724Z,7.65
2023-01-19T19:56:34.327Z,8.52
2023-01-19T20:01:36.146Z,9.00
2023-01-19T20:06:44.438Z,8.13
2023-01-19T20:11:46.846Z,12.00
2023-01-19T20:16:48.574Z,9.98
2023-01-19T20:21:50.265Z,8.98
2023-01-19T20:26:53.268Z,10.57
2023-01-19T20:31:55.894Z,9.70
2023-01-19T20:36:57.949Z,9.57
2023-01-19T20:41:59.596Z,10.27
2023-01-19T20:47:39.118Z,9.77
2023-01-19T20:52:40.752Z,9.15
2023-01-19T20:57:43.110Z,7.85
2023-01-19T21:02:44.843Z,8.35
2023-01-19T21:07:46.492Z,9.18
2023-01-19T21:12:48.308Z,9.68
2023-01-19T21:17:49.956Z,9.45
2023-01-19T21:22:52.352Z,9.75
2023-01-19T21:27:54.006Z,8.68
2023-01-19T21:32:55.754Z,9.05
2023-01-19T21:37:58.546Z,8.93
2023-01-19T21:43:00.227Z,8.40
2023-01-19T21:48:01.943Z,7.40
2023-01-19T21:53:05.989Z,8.38
2023-01-19T21:58:07.693Z,7.07
2023-01-19T22:03:09.454Z,6.85
2023-01-19T22:08:11.111Z,9.05
2023-01-19T22:13:12.887Z,9.38
2023-01-19T22:18:14.678Z,9.55
2023-01-19T22:23:16.530Z,9.82
2023-01-19T22:28:18.199Z,7.82
2023-01-19T22:33:19.926Z,7.25
2023-01-19T22:38:22.123Z,11.13
2023-01-19T22:43:23.817Z,7.07
2023-01-19T22:48:25.447Z,8.90
2023-01-19T22:53:27.081Z,9.15
2023-01-19T22:58:28.794Z,8.38
2023-01-19T23:03:30.405Z,8.88
2023-01-19T23:08:32.395Z,9.85
2023-01-19T23:13:34.329Z,11.48
2023-01-19T23:18:36.422Z,9.02
2023-01-19T23:23:38.488Z,12.50
2023-01-19T23:28:40.322Z,10.10
2023-01-19T23:33:44.088Z,14.27
2023-01-19T23:38:51.145Z,14.40
2023-01-19T23:43:52.800Z,13.20
2023-01-19T23:48:54.654Z,16.20
2023-01-19T23:53:57.268Z,17.75
2023-01-19T23:59:02.147Z,16.00
